sensor_id;sensor_type;location;lat;lon;timestamp;temperature;humidity
47338;DHT22;33069;51.970;5.892;2024-03-02T00:01:50;8.40;70.30
47338;DHT22;33069;51.970;5.892;2024-03-02T00:04:36;8.40;70.20
47338;DHT22;33069;51.970;5.892;2024-03-02T00:07:23;8.50;69.90
47338;DHT22;33069;51.970;5.892;2024-03-02T00:10:12;8.50;69.90
47338;DHT22;33069;51.970;5.892;2024-03-02T00:13:00;8.50;69.90
47338;DHT22;33069;51.970;5.892;2024-03-02T00:15:48;8.50;69.70
47338;DHT22;33069;51.970;5.892;2024-03-02T00:18:36;8.50;69.80
47338;DHT22;33069;51.970;5.892;2024-03-02T00:21:27;8.60;69.70
47338;DHT22;33069;51.970;5.892;2024-03-02T00:24:21;8.60;69.60
47338;DHT22;33069;51.970;5.892;2024-03-02T00:27:14;8.70;69.50
47338;DHT22;33069;51.970;5.892;2024-03-02T00:30:01;8.60;69.70
47338;DHT22;33069;51.970;5.892;2024-03-02T00:32:47;8.60;69.80
47338;DHT22;33069;51.970;5.892;2024-03-02T00:35:33;8.70;69.70
47338;DHT22;33069;51.970;5.892;2024-03-02T00:38:19;8.70;69.70
47338;DHT22;33069;51.970;5.892;2024-03-02T00:41:06;8.80;69.80
47338;DHT22;33069;51.970;5.892;2024-03-02T00:44:02;8.70;69.60
47338;DHT22;33069;51.970;5.892;2024-03-02T00:46:53;8.70;69.50
47338;DHT22;33069;51.970;5.892;2024-03-02T00:49:39;8.70;69.70
47338;DHT22;33069;51.970;5.892;2024-03-02T00:52:25;8.70;69.60
47338;DHT22;33069;51.970;5.892;2024-03-02T00:55:11;8.70;69.70
47338;DHT22;33069;51.970;5.892;2024-03-02T00:57:58;8.70;69.70
47338;DHT22;33069;51.970;5.892;2024-03-02T01:00:44;8.70;69.70
47338;DHT22;33069;51.970;5.892;2024-03-02T01:03:31;8.70;69.60
47338;DHT22;33069;51.970;5.892;2024-03-02T01:06:17;8.70;69.60
47338;DHT22;33069;51.970;5.892;2024-03-02T01:09:04;8.70;69.60
47338;DHT22;33069;51.970;5.892;2024-03-02T01:11:50;8.70;69.80
47338;DHT22;33069;51.970;5.892;2024-03-02T01:14:36;8.70;69.60
47338;DHT22;33069;51.970;5.892;2024-03-02T01:17:22;8.80;69.50
47338;DHT22;33069;51.970;5.892;2024-03-02T01:20:08;8.80;69.50
47338;DHT22;33069;51.970;5.892;2024-03-02T01:22:55;8.90;69.40
47338;DHT22;33069;51.970;5.892;2024-03-02T01:25:41;8.80;69.40
47338;DHT22;33069;51.970;5.892;2024-03-02T01:28:27;8.90;69.50
47338;DHT22;33069;51.970;5.892;2024-03-02T01:31:13;8.90;69.40
47338;DHT22;33069;51.970;5.892;2024-03-02T01:33:59;8.80;69.50
47338;DHT22;33069;51.970;5.892;2024-03-02T01:36:45;8.90;69.60
47338;DHT22;33069;51.970;5.892;2024-03-02T01:39:31;8.80;69.70
47338;DHT22;33069;51.970;5.892;2024-03-02T01:42:17;8.80;70.50
47338;DHT22;33069;51.970;5.892;2024-03-02T01:45:07;8.80;70.90
47338;DHT22;33069;51.970;5.892;2024-03-02T01:47:53;8.90;71.30
47338;DHT22;33069;51.970;5.892;2024-03-02T01:50:39;8.80;71.40
47338;DHT22;33069;51.970;5.892;2024-03-02T01:53:25;8.80;71.90
47338;DHT22;33069;51.970;5.892;2024-03-02T01:56:11;8.80;72.00
47338;DHT22;33069;51.970;5.892;2024-03-02T01:58:58;8.80;72.30
47338;DHT22;33069;51.970;5.892;2024-03-02T02:01:44;8.80;72.50
47338;DHT22;33069;51.970;5.892;2024-03-02T02:04:29;8.90;72.60
47338;DHT22;33069;51.970;5.892;2024-03-02T02:07:16;8.90;72.60
47338;DHT22;33069;51.970;5.892;2024-03-02T02:10:02;8.80;72.90
47338;DHT22;33069;51.970;5.892;2024-03-02T02:12:48;8.70;73.00
47338;DHT22;33069;51.970;5.892;2024-03-02T02:15:34;8.80;73.30
47338;DHT22;33069;51.970;5.892;2024-03-02T02:18:22;8.80;73.30
47338;DHT22;33069;51.970;5.892;2024-03-02T02:21:08;8.70;73.40
47338;DHT22;33069;51.970;5.892;2024-03-02T02:23:54;8.60;73.70
47338;DHT22;33069;51.970;5.892;2024-03-02T02:26:40;8.50;74.00
47338;DHT22;33069;51.970;5.892;2024-03-02T02:29:26;8.70;74.00
47338;DHT22;33069;51.970;5.892;2024-03-02T02:32:12;8.60;74.00
47338;DHT22;33069;51.970;5.892;2024-03-02T02:34:58;8.50;74.30
47338;DHT22;33069;51.970;5.892;2024-03-02T02:37:46;8.70;74.20
47338;DHT22;33069;51.970;5.892;2024-03-02T02:40:32;8.60;74.10
47338;DHT22;33069;51.970;5.892;2024-03-02T02:43:18;8.60;74.30
47338;DHT22;33069;51.970;5.892;2024-03-02T02:46:04;8.60;74.20
47338;DHT22;33069;51.970;5.892;2024-03-02T02:48:50;8.70;74.20
47338;DHT22;33069;51.970;5.892;2024-03-02T02:51:38;8.70;73.80
47338;DHT22;33069;51.970;5.892;2024-03-02T02:54:24;8.60;73.80
47338;DHT22;33069;51.970;5.892;2024-03-02T02:57:10;8.50;73.40
47338;DHT22;33069;51.970;5.892;2024-03-02T02:59:56;8.60;73.60
47338;DHT22;33069;51.970;5.892;2024-03-02T03:02:43;8.60;73.80
47338;DHT22;33069;51.970;5.892;2024-03-02T03:05:30;8.50;73.90
47338;DHT22;33069;51.970;5.892;2024-03-02T03:08:16;8.60;73.90
47338;DHT22;33069;51.970;5.892;2024-03-02T03:11:03;8.50;73.70
47338;DHT22;33069;51.970;5.892;2024-03-02T03:13:49;8.40;74.20
47338;DHT22;33069;51.970;5.892;2024-03-02T03:16:35;8.40;74.20
47338;DHT22;33069;51.970;5.892;2024-03-02T03:19:21;8.40;74.40
47338;DHT22;33069;51.970;5.892;2024-03-02T03:22:07;8.30;74.40
47338;DHT22;33069;51.970;5.892;2024-03-02T03:24:53;8.40;74.30
47338;DHT22;33069;51.970;5.892;2024-03-02T03:27:39;8.40;74.40
47338;DHT22;33069;51.970;5.892;2024-03-02T03:30:25;8.40;74.50
47338;DHT22;33069;51.970;5.892;2024-03-02T03:33:11;8.50;74.20
47338;DHT22;33069;51.970;5.892;2024-03-02T03:35:57;8.40;74.50
47338;DHT22;33069;51.970;5.892;2024-03-02T03:38:43;8.40;75.00
47338;DHT22;33069;51.970;5.892;2024-03-02T03:41:29;8.30;75.10
47338;DHT22;33069;51.970;5.892;2024-03-02T03:44:15;8.30;75.20
47338;DHT22;33069;51.970;5.892;2024-03-02T03:47:01;8.20;75.30
47338;DHT22;33069;51.970;5.892;2024-03-02T03:49:48;8.20;75.90
47338;DHT22;33069;51.970;5.892;2024-03-02T03:52:34;8.10;76.40
47338;DHT22;33069;51.970;5.892;2024-03-02T03:55:20;8.20;76.50
47338;DHT22;33069;51.970;5.892;2024-03-02T03:58:06;8.10;76.50
47338;DHT22;33069;51.970;5.892;2024-03-02T04:00:52;8.10;76.80
47338;DHT22;33069;51.970;5.892;2024-03-02T04:03:38;8.00;76.80
47338;DHT22;33069;51.970;5.892;2024-03-02T04:06:24;7.90;77.00
47338;DHT22;33069;51.970;5.892;2024-03-02T04:09:11;8.00;77.10
47338;DHT22;33069;51.970;5.892;2024-03-02T04:11:57;8.00;77.40
47338;DHT22;33069;51.970;5.892;2024-03-02T04:14:43;8.00;77.50
47338;DHT22;33069;51.970;5.892;2024-03-02T04:17:29;8.00;77.60
47338;DHT22;33069;51.970;5.892;2024-03-02T04:20:15;7.90;77.60
47338;DHT22;33069;51.970;5.892;2024-03-02T04:23:01;7.90;77.30
47338;DHT22;33069;51.970;5.892;2024-03-02T04:25:47;8.00;77.40
47338;DHT22;33069;51.970;5.892;2024-03-02T04:28:33;7.90;77.00
47338;DHT22;33069;51.970;5.892;2024-03-02T04:31:19;7.90;77.00
47338;DHT22;33069;51.970;5.892;2024-03-02T04:34:05;7.80;77.40
47338;DHT22;33069;51.970;5.892;2024-03-02T04:36:51;7.90;77.30
47338;DHT22;33069;51.970;5.892;2024-03-02T04:39:37;7.80;77.30
47338;DHT22;33069;51.970;5.892;2024-03-02T04:42:23;7.80;77.40
47338;DHT22;33069;51.970;5.892;2024-03-02T04:45:09;7.80;77.30
47338;DHT22;33069;51.970;5.892;2024-03-02T04:47:55;7.70;77.60
47338;DHT22;33069;51.970;5.892;2024-03-02T04:50:41;7.60;77.90
47338;DHT22;33069;51.970;5.892;2024-03-02T04:53:27;7.60;78.00
47338;DHT22;33069;51.970;5.892;2024-03-02T04:56:13;7.60;78.10
47338;DHT22;33069;51.970;5.892;2024-03-02T04:59:18;7.50;78.20
47338;DHT22;33069;51.970;5.892;2024-03-02T05:02:04;7.30;78.40
47338;DHT22;33069;51.970;5.892;2024-03-02T05:04:50;7.30;78.70
47338;DHT22;33069;51.970;5.892;2024-03-02T05:07:36;7.20;79.00
47338;DHT22;33069;51.970;5.892;2024-03-02T05:10:22;7.10;79.10
47338;DHT22;33069;51.970;5.892;2024-03-02T05:13:07;7.20;79.20
47338;DHT22;33069;51.970;5.892;2024-03-02T05:15:53;7.20;79.20
47338;DHT22;33069;51.970;5.892;2024-03-02T05:18:39;7.20;79.30
47338;DHT22;33069;51.970;5.892;2024-03-02T05:21:25;7.20;79.40
47338;DHT22;33069;51.970;5.892;2024-03-02T05:24:12;7.20;79.30
47338;DHT22;33069;51.970;5.892;2024-03-02T05:26:58;7.30;79.20
47338;DHT22;33069;51.970;5.892;2024-03-02T05:29:44;7.20;79.00
47338;DHT22;33069;51.970;5.892;2024-03-02T05:32:30;7.20;79.10
47338;DHT22;33069;51.970;5.892;2024-03-02T05:35:16;7.20;79.00
47338;DHT22;33069;51.970;5.892;2024-03-02T05:38:02;7.10;78.90
47338;DHT22;33069;51.970;5.892;2024-03-02T05:40:48;7.00;78.70
47338;DHT22;33069;51.970;5.892;2024-03-02T05:43:34;6.90;78.50
47338;DHT22;33069;51.970;5.892;2024-03-02T05:46:20;6.90;78.60
47338;DHT22;33069;51.970;5.892;2024-03-02T05:49:06;6.80;78.60
47338;DHT22;33069;51.970;5.892;2024-03-02T05:51:55;6.80;78.70
47338;DHT22;33069;51.970;5.892;2024-03-02T05:54:41;6.80;78.70
47338;DHT22;33069;51.970;5.892;2024-03-02T05:57:27;6.80;78.60
47338;DHT22;33069;51.970;5.892;2024-03-02T06:00:35;6.80;78.60
47338;DHT22;33069;51.970;5.892;2024-03-02T06:03:21;6.80;78.60
47338;DHT22;33069;51.970;5.892;2024-03-02T06:06:07;6.80;78.60
47338;DHT22;33069;51.970;5.892;2024-03-02T06:08:53;6.70;78.60
47338;DHT22;33069;51.970;5.892;2024-03-02T06:11:40;6.80;78.50
47338;DHT22;33069;51.970;5.892;2024-03-02T06:14:26;6.80;78.40
47338;DHT22;33069;51.970;5.892;2024-03-02T06:17:12;6.80;78.50
47338;DHT22;33069;51.970;5.892;2024-03-02T06:19:58;6.70;78.40
47338;DHT22;33069;51.970;5.892;2024-03-02T06:22:44;6.60;78.60
47338;DHT22;33069;51.970;5.892;2024-03-02T06:25:30;6.60;78.70
47338;DHT22;33069;51.970;5.892;2024-03-02T06:28:16;6.60;78.60
47338;DHT22;33069;51.970;5.892;2024-03-02T06:31:02;6.50;78.90
47338;DHT22;33069;51.970;5.892;2024-03-02T06:33:48;6.70;78.80
47338;DHT22;33069;51.970;5.892;2024-03-02T06:36:34;6.70;78.70
47338;DHT22;33069;51.970;5.892;2024-03-02T06:39:20;6.70;78.80
47338;DHT22;33069;51.970;5.892;2024-03-02T06:42:06;6.70;79.00
47338;DHT22;33069;51.970;5.892;2024-03-02T06:44:52;6.80;79.00
47338;DHT22;33069;51.970;5.892;2024-03-02T06:47:38;6.80;78.70
47338;DHT22;33069;51.970;5.892;2024-03-02T06:50:24;6.80;78.80
47338;DHT22;33069;51.970;5.892;2024-03-02T06:53:10;6.80;78.80
47338;DHT22;33069;51.970;5.892;2024-03-02T06:55:56;7.00;78.90
47338;DHT22;33069;51.970;5.892;2024-03-02T06:58:41;7.10;78.60
47338;DHT22;33069;51.970;5.892;2024-03-02T07:01:28;7.30;78.30
47338;DHT22;33069;51.970;5.892;2024-03-02T07:04:14;7.30;78.00
47338;DHT22;33069;51.970;5.892;2024-03-02T07:07:00;7.40;77.70
47338;DHT22;33069;51.970;5.892;2024-03-02T07:09:46;7.30;77.20
47338;DHT22;33069;51.970;5.892;2024-03-02T07:12:33;7.20;77.20
47338;DHT22;33069;51.970;5.892;2024-03-02T07:15:19;7.10;77.20
47338;DHT22;33069;51.970;5.892;2024-03-02T07:18:14;7.10;77.40
47338;DHT22;33069;51.970;5.892;2024-03-02T07:21:00;7.20;77.40
47338;DHT22;33069;51.970;5.892;2024-03-02T07:23:46;7.20;77.40
47338;DHT22;33069;51.970;5.892;2024-03-02T07:26:32;7.20;77.40
47338;DHT22;33069;51.970;5.892;2024-03-02T07:29:18;7.20;77.40
47338;DHT22;33069;51.970;5.892;2024-03-02T07:32:05;7.10;77.50
47338;DHT22;33069;51.970;5.892;2024-03-02T07:34:51;7.20;77.40
47338;DHT22;33069;51.970;5.892;2024-03-02T07:37:37;7.20;77.30
47338;DHT22;33069;51.970;5.892;2024-03-02T07:40:24;7.20;77.10
47338;DHT22;33069;51.970;5.892;2024-03-02T07:43:10;7.30;76.80
47338;DHT22;33069;51.970;5.892;2024-03-02T07:45:56;7.30;76.70
47338;DHT22;33069;51.970;5.892;2024-03-02T07:48:42;7.40;76.20
47338;DHT22;33069;51.970;5.892;2024-03-02T07:51:28;7.50;75.90
47338;DHT22;33069;51.970;5.892;2024-03-02T07:54:14;7.60;75.80
47338;DHT22;33069;51.970;5.892;2024-03-02T07:57:01;7.70;75.70
47338;DHT22;33069;51.970;5.892;2024-03-02T07:59:47;7.70;75.40
47338;DHT22;33069;51.970;5.892;2024-03-02T08:02:33;7.90;75.10
47338;DHT22;33069;51.970;5.892;2024-03-02T08:05:19;8.00;74.90
47338;DHT22;33069;51.970;5.892;2024-03-02T08:08:06;8.30;74.40
47338;DHT22;33069;51.970;5.892;2024-03-02T08:10:51;8.30;73.70
47338;DHT22;33069;51.970;5.892;2024-03-02T08:13:38;8.40;73.60
47338;DHT22;33069;51.970;5.892;2024-03-02T08:16:24;8.50;73.30
47338;DHT22;33069;51.970;5.892;2024-03-02T08:19:11;8.70;73.10
47338;DHT22;33069;51.970;5.892;2024-03-02T08:21:57;8.70;72.60
47338;DHT22;33069;51.970;5.892;2024-03-02T08:24:45;8.80;72.20
47338;DHT22;33069;51.970;5.892;2024-03-02T08:27:32;8.80;71.90
47338;DHT22;33069;51.970;5.892;2024-03-02T08:30:18;8.90;71.50
47338;DHT22;33069;51.970;5.892;2024-03-02T08:33:04;8.80;71.30
47338;DHT22;33069;51.970;5.892;2024-03-02T08:35:51;8.90;71.40
47338;DHT22;33069;51.970;5.892;2024-03-02T08:38:37;8.90;71.00
47338;DHT22;33069;51.970;5.892;2024-03-02T08:41:23;9.00;70.80
47338;DHT22;33069;51.970;5.892;2024-03-02T08:44:09;9.00;70.60
47338;DHT22;33069;51.970;5.892;2024-03-02T08:46:56;8.90;69.80
47338;DHT22;33069;51.970;5.892;2024-03-02T08:49:42;9.00;69.80
47338;DHT22;33069;51.970;5.892;2024-03-02T08:52:28;9.00;69.80
47338;DHT22;33069;51.970;5.892;2024-03-02T08:55:14;8.90;69.60
47338;DHT22;33069;51.970;5.892;2024-03-02T08:58:00;8.80;69.30
47338;DHT22;33069;51.970;5.892;2024-03-02T09:00:48;9.00;69.50
47338;DHT22;33069;51.970;5.892;2024-03-02T09:03:34;9.00;69.20
47338;DHT22;33069;51.970;5.892;2024-03-02T09:06:20;9.00;69.00
47338;DHT22;33069;51.970;5.892;2024-03-02T09:09:07;9.00;68.80
47338;DHT22;33069;51.970;5.892;2024-03-02T09:11:53;9.00;68.90
47338;DHT22;33069;51.970;5.892;2024-03-02T09:14:40;9.20;69.00
47338;DHT22;33069;51.970;5.892;2024-03-02T09:17:27;9.30;68.50
47338;DHT22;33069;51.970;5.892;2024-03-02T09:20:13;9.30;68.50
47338;DHT22;33069;51.970;5.892;2024-03-02T09:22:59;9.20;68.40
47338;DHT22;33069;51.970;5.892;2024-03-02T09:25:45;9.20;68.40
47338;DHT22;33069;51.970;5.892;2024-03-02T09:28:31;9.30;68.40
47338;DHT22;33069;51.970;5.892;2024-03-02T09:31:17;9.30;68.10
47338;DHT22;33069;51.970;5.892;2024-03-02T09:34:03;9.20;67.00
47338;DHT22;33069;51.970;5.892;2024-03-02T09:36:50;9.20;67.40
47338;DHT22;33069;51.970;5.892;2024-03-02T09:39:37;9.40;67.70
47338;DHT22;33069;51.970;5.892;2024-03-02T09:42:23;9.30;67.10
47338;DHT22;33069;51.970;5.892;2024-03-02T09:45:09;9.30;67.40
47338;DHT22;33069;51.970;5.892;2024-03-02T09:47:56;9.40;67.30
47338;DHT22;33069;51.970;5.892;2024-03-02T09:50:42;9.50;67.30
47338;DHT22;33069;51.970;5.892;2024-03-02T09:53:31;9.50;66.80
47338;DHT22;33069;51.970;5.892;2024-03-02T09:56:17;9.70;67.00
47338;DHT22;33069;51.970;5.892;2024-03-02T09:59:06;9.80;66.90
47338;DHT22;33069;51.970;5.892;2024-03-02T10:02:00;9.80;66.40
47338;DHT22;33069;51.970;5.892;2024-03-02T10:04:49;9.80;66.30
47338;DHT22;33069;51.970;5.892;2024-03-02T10:07:35;10.00;66.00
47338;DHT22;33069;51.970;5.892;2024-03-02T10:10:21;9.90;65.70
47338;DHT22;33069;51.970;5.892;2024-03-02T10:13:09;9.90;65.60
47338;DHT22;33069;51.970;5.892;2024-03-02T10:15:55;10.00;65.90
47338;DHT22;33069;51.970;5.892;2024-03-02T10:18:42;10.10;65.00
47338;DHT22;33069;51.970;5.892;2024-03-02T10:21:28;10.10;64.80
47338;DHT22;33069;51.970;5.892;2024-03-02T10:24:14;10.20;64.60
47338;DHT22;33069;51.970;5.892;2024-03-02T10:27:00;10.20;64.60
47338;DHT22;33069;51.970;5.892;2024-03-02T10:29:46;10.20;64.30
47338;DHT22;33069;51.970;5.892;2024-03-02T10:32:33;10.40;63.80
47338;DHT22;33069;51.970;5.892;2024-03-02T10:35:20;10.40;63.40
47338;DHT22;33069;51.970;5.892;2024-03-02T10:38:06;10.50;63.60
47338;DHT22;33069;51.970;5.892;2024-03-02T10:40:52;10.40;62.70
47338;DHT22;33069;51.970;5.892;2024-03-02T10:43:38;10.40;62.80
47338;DHT22;33069;51.970;5.892;2024-03-02T10:46:28;10.50;63.10
47338;DHT22;33069;51.970;5.892;2024-03-02T10:49:17;10.60;62.90
47338;DHT22;33069;51.970;5.892;2024-03-02T10:52:04;10.60;62.40
47338;DHT22;33069;51.970;5.892;2024-03-02T10:54:50;10.70;62.50
47338;DHT22;33069;51.970;5.892;2024-03-02T10:57:53;10.90;62.20
47338;DHT22;33069;51.970;5.892;2024-03-02T11:00:41;10.90;61.20
47338;DHT22;33069;51.970;5.892;2024-03-02T11:03:30;10.90;60.60
47338;DHT22;33069;51.970;5.892;2024-03-02T11:06:19;11.00;60.50
47338;DHT22;33069;51.970;5.892;2024-03-02T11:09:07;11.00;60.00
47338;DHT22;33069;51.970;5.892;2024-03-02T11:15:11;11.00;59.60
47338;DHT22;33069;51.970;5.892;2024-03-02T11:17:59;11.30;60.20
47338;DHT22;33069;51.970;5.892;2024-03-02T11:20:45;11.40;59.80
47338;DHT22;33069;51.970;5.892;2024-03-02T11:23:33;11.40;59.50
47338;DHT22;33069;51.970;5.892;2024-03-02T11:26:22;11.50;60.30
47338;DHT22;33069;51.970;5.892;2024-03-02T11:32:22;11.50;60.30
47338;DHT22;33069;51.970;5.892;2024-03-02T11:35:11;11.70;60.20
47338;DHT22;33069;51.970;5.892;2024-03-02T11:37:58;11.60;59.60
47338;DHT22;33069;51.970;5.892;2024-03-02T11:40:44;11.50;59.80
47338;DHT22;33069;51.970;5.892;2024-03-02T11:43:30;11.50;59.60
47338;DHT22;33069;51.970;5.892;2024-03-02T11:46:17;11.50;58.60
47338;DHT22;33069;51.970;5.892;2024-03-02T11:49:07;11.60;58.90
47338;DHT22;33069;51.970;5.892;2024-03-02T11:52:01;11.70;58.40
47338;DHT22;33069;51.970;5.892;2024-03-02T11:54:49;11.70;58.40
47338;DHT22;33069;51.970;5.892;2024-03-02T11:57:37;11.80;58.90
47338;DHT22;33069;51.970;5.892;2024-03-02T12:00:23;11.80;57.40
47338;DHT22;33069;51.970;5.892;2024-03-02T12:03:13;11.70;57.50
47338;DHT22;33069;51.970;5.892;2024-03-02T12:05:59;11.70;57.10
47338;DHT22;33069;51.970;5.892;2024-03-02T12:08:45;11.80;57.00
47338;DHT22;33069;51.970;5.892;2024-03-02T12:11:31;11.80;56.40
47338;DHT22;33069;51.970;5.892;2024-03-02T12:14:17;12.00;55.80
47338;DHT22;33069;51.970;5.892;2024-03-02T12:17:05;12.00;55.40
47338;DHT22;33069;51.970;5.892;2024-03-02T12:19:51;12.10;55.10
47338;DHT22;33069;51.970;5.892;2024-03-02T12:22:37;12.10;55.00
47338;DHT22;33069;51.970;5.892;2024-03-02T12:25:24;12.20;55.40
47338;DHT22;33069;51.970;5.892;2024-03-02T12:28:10;12.30;55.60
47338;DHT22;33069;51.970;5.892;2024-03-02T12:30:56;12.40;55.50
47338;DHT22;33069;51.970;5.892;2024-03-02T12:33:43;12.30;55.20
47338;DHT22;33069;51.970;5.892;2024-03-02T12:36:29;12.30;55.50
47338;DHT22;33069;51.970;5.892;2024-03-02T12:39:16;12.30;55.50
47338;DHT22;33069;51.970;5.892;2024-03-02T12:42:03;12.50;55.20
47338;DHT22;33069;51.970;5.892;2024-03-02T12:44:49;12.70;54.20
47338;DHT22;33069;51.970;5.892;2024-03-02T12:47:35;12.80;54.70
47338;DHT22;33069;51.970;5.892;2024-03-02T12:50:22;12.80;54.80
47338;DHT22;33069;51.970;5.892;2024-03-02T12:53:14;12.90;54.60
47338;DHT22;33069;51.970;5.892;2024-03-02T12:56:01;12.90;54.40
47338;DHT22;33069;51.970;5.892;2024-03-02T12:58:47;13.10;53.70
47338;DHT22;33069;51.970;5.892;2024-03-02T13:01:33;13.20;53.80
47338;DHT22;33069;51.970;5.892;2024-03-02T13:04:26;13.30;52.50
47338;DHT22;33069;51.970;5.892;2024-03-02T13:07:13;13.30;52.90
47338;DHT22;33069;51.970;5.892;2024-03-02T13:09:59;13.30;53.00
47338;DHT22;33069;51.970;5.892;2024-03-02T13:12:46;13.20;53.20
47338;DHT22;33069;51.970;5.892;2024-03-02T13:15:35;13.30;53.30
47338;DHT22;33069;51.970;5.892;2024-03-02T13:18:22;13.30;54.20
47338;DHT22;33069;51.970;5.892;2024-03-02T13:21:08;13.20;56.10
47338;DHT22;33069;51.970;5.892;2024-03-02T13:23:54;13.30;56.80
47338;DHT22;33069;51.970;5.892;2024-03-02T13:26:41;13.30;57.60
47338;DHT22;33069;51.970;5.892;2024-03-02T13:29:27;13.50;56.70
47338;DHT22;33069;51.970;5.892;2024-03-02T13:32:16;13.50;56.40
47338;DHT22;33069;51.970;5.892;2024-03-02T13:35:02;13.60;56.20
47338;DHT22;33069;51.970;5.892;2024-03-02T13:37:48;13.80;55.40
47338;DHT22;33069;51.970;5.892;2024-03-02T13:40:35;13.90;55.60
47338;DHT22;33069;51.970;5.892;2024-03-02T13:43:21;13.90;55.00
47338;DHT22;33069;51.970;5.892;2024-03-02T13:46:09;14.00;54.50
47338;DHT22;33069;51.970;5.892;2024-03-02T13:48:55;14.00;54.10
47338;DHT22;33069;51.970;5.892;2024-03-02T13:51:42;14.00;54.60
47338;DHT22;33069;51.970;5.892;2024-03-02T13:54:29;14.00;54.40
47338;DHT22;33069;51.970;5.892;2024-03-02T13:57:15;13.80;55.00
47338;DHT22;33069;51.970;5.892;2024-03-02T14:00:05;13.70;55.70
47338;DHT22;33069;51.970;5.892;2024-03-02T14:02:56;13.60;55.80
47338;DHT22;33069;51.970;5.892;2024-03-02T14:05:43;13.30;56.80
47338;DHT22;33069;51.970;5.892;2024-03-02T14:08:29;12.90;57.30
47338;DHT22;33069;51.970;5.892;2024-03-02T14:11:15;13.10;57.30
47338;DHT22;33069;51.970;5.892;2024-03-02T14:14:02;13.30;56.90
47338;DHT22;33069;51.970;5.892;2024-03-02T14:16:49;13.40;56.70
47338;DHT22;33069;51.970;5.892;2024-03-02T14:19:35;13.70;56.40
47338;DHT22;33069;51.970;5.892;2024-03-02T14:22:21;13.60;56.20
47338;DHT22;33069;51.970;5.892;2024-03-02T14:25:07;13.60;55.50
47338;DHT22;33069;51.970;5.892;2024-03-02T14:27:53;13.90;54.00
47338;DHT22;33069;51.970;5.892;2024-03-02T14:30:39;13.90;53.30
47338;DHT22;33069;51.970;5.892;2024-03-02T14:33:25;13.90;53.20
47338;DHT22;33069;51.970;5.892;2024-03-02T14:36:11;13.90;53.40
47338;DHT22;33069;51.970;5.892;2024-03-02T14:38:57;14.00;54.00
47338;DHT22;33069;51.970;5.892;2024-03-02T14:41:44;14.10;53.20
47338;DHT22;33069;51.970;5.892;2024-03-02T14:44:29;14.10;53.50
47338;DHT22;33069;51.970;5.892;2024-03-02T14:47:15;14.20;53.30
47338;DHT22;33069;51.970;5.892;2024-03-02T14:50:02;14.20;53.30
47338;DHT22;33069;51.970;5.892;2024-03-02T14:52:52;14.30;53.40
47338;DHT22;33069;51.970;5.892;2024-03-02T14:55:38;14.40;53.20
47338;DHT22;33069;51.970;5.892;2024-03-02T14:58:24;14.40;54.00
47338;DHT22;33069;51.970;5.892;2024-03-02T15:01:11;14.30;54.20
47338;DHT22;33069;51.970;5.892;2024-03-02T15:03:57;14.30;54.70
47338;DHT22;33069;51.970;5.892;2024-03-02T15:06:43;14.30;55.60
47338;DHT22;33069;51.970;5.892;2024-03-02T15:09:29;14.50;54.50
47338;DHT22;33069;51.970;5.892;2024-03-02T15:12:15;14.50;54.90
47338;DHT22;33069;51.970;5.892;2024-03-02T15:15:02;14.30;55.30
47338;DHT22;33069;51.970;5.892;2024-03-02T15:17:49;14.50;55.70
47338;DHT22;33069;51.970;5.892;2024-03-02T15:20:35;14.40;54.80
47338;DHT22;33069;51.970;5.892;2024-03-02T15:23:21;14.10;56.50
47338;DHT22;33069;51.970;5.892;2024-03-02T15:26:07;14.30;55.70
47338;DHT22;33069;51.970;5.892;2024-03-02T15:28:53;14.40;55.80
47338;DHT22;33069;51.970;5.892;2024-03-02T15:31:41;14.50;55.50
47338;DHT22;33069;51.970;5.892;2024-03-02T15:34:27;14.50;56.00
47338;DHT22;33069;51.970;5.892;2024-03-02T15:37:13;14.50;56.00
47338;DHT22;33069;51.970;5.892;2024-03-02T15:39:59;14.50;56.00
47338;DHT22;33069;51.970;5.892;2024-03-02T15:42:51;14.60;55.90
47338;DHT22;33069;51.970;5.892;2024-03-02T15:45:37;14.50;56.10
47338;DHT22;33069;51.970;5.892;2024-03-02T15:48:23;14.30;56.70
47338;DHT22;33069;51.970;5.892;2024-03-02T15:51:09;14.40;57.10
47338;DHT22;33069;51.970;5.892;2024-03-02T15:53:55;14.40;56.80
47338;DHT22;33069;51.970;5.892;2024-03-02T15:56:41;14.20;57.70
47338;DHT22;33069;51.970;5.892;2024-03-02T15:59:27;14.20;57.60
47338;DHT22;33069;51.970;5.892;2024-03-02T16:02:13;13.90;57.90
47338;DHT22;33069;51.970;5.892;2024-03-02T16:05:00;13.80;58.10
47338;DHT22;33069;51.970;5.892;2024-03-02T16:07:46;13.60;58.50
47338;DHT22;33069;51.970;5.892;2024-03-02T16:10:32;13.50;58.80
47338;DHT22;33069;51.970;5.892;2024-03-02T16:13:18;13.70;58.60
47338;DHT22;33069;51.970;5.892;2024-03-02T16:16:04;13.60;58.80
47338;DHT22;33069;51.970;5.892;2024-03-02T16:18:50;13.70;58.60
47338;DHT22;33069;51.970;5.892;2024-03-02T16:21:36;13.60;58.50
47338;DHT22;33069;51.970;5.892;2024-03-02T16:24:22;13.70;58.70
47338;DHT22;33069;51.970;5.892;2024-03-02T16:27:08;13.80;58.30
47338;DHT22;33069;51.970;5.892;2024-03-02T16:29:54;13.90;58.60
47338;DHT22;33069;51.970;5.892;2024-03-02T16:32:42;14.00;58.50
47338;DHT22;33069;51.970;5.892;2024-03-02T16:35:28;14.00;58.10
47338;DHT22;33069;51.970;5.892;2024-03-02T16:38:14;14.00;57.90
47338;DHT22;33069;51.970;5.892;2024-03-02T16:41:03;13.60;58.70
47338;DHT22;33069;51.970;5.892;2024-03-02T16:43:50;13.40;59.30
47338;DHT22;33069;51.970;5.892;2024-03-02T16:46:36;13.30;60.00
47338;DHT22;33069;51.970;5.892;2024-03-02T16:49:23;13.10;60.50
47338;DHT22;33069;51.970;5.892;2024-03-02T16:52:09;13.10;60.70
47338;DHT22;33069;51.970;5.892;2024-03-02T16:54:55;13.00;61.20
47338;DHT22;33069;51.970;5.892;2024-03-02T16:57:41;13.00;61.00
47338;DHT22;33069;51.970;5.892;2024-03-02T17:00:27;12.80;61.40
47338;DHT22;33069;51.970;5.892;2024-03-02T17:03:13;12.80;61.80
47338;DHT22;33069;51.970;5.892;2024-03-02T17:05:59;12.80;62.00
47338;DHT22;33069;51.970;5.892;2024-03-02T17:08:45;12.80;62.10
47338;DHT22;33069;51.970;5.892;2024-03-02T17:11:31;12.80;61.80
47338;DHT22;33069;51.970;5.892;2024-03-02T17:14:17;12.70;62.20
47338;DHT22;33069;51.970;5.892;2024-03-02T17:17:03;12.70;62.50
47338;DHT22;33069;51.970;5.892;2024-03-02T17:19:49;12.60;62.70
47338;DHT22;33069;51.970;5.892;2024-03-02T17:22:35;12.70;62.80
47338;DHT22;33069;51.970;5.892;2024-03-02T17:25:21;12.50;63.20
47338;DHT22;33069;51.970;5.892;2024-03-02T17:31:06;12.30;63.60
47338;DHT22;33069;51.970;5.892;2024-03-02T17:33:52;12.10;64.20
47338;DHT22;33069;51.970;5.892;2024-03-02T17:36:38;12.10;64.30
47338;DHT22;33069;51.970;5.892;2024-03-02T17:39:24;12.00;64.70
47338;DHT22;33069;51.970;5.892;2024-03-02T17:42:10;12.00;64.70
47338;DHT22;33069;51.970;5.892;2024-03-02T17:44:56;12.00;64.70
47338;DHT22;33069;51.970;5.892;2024-03-02T17:47:42;12.00;65.10
47338;DHT22;33069;51.970;5.892;2024-03-02T17:50:28;12.00;65.40
47338;DHT22;33069;51.970;5.892;2024-03-02T17:53:14;11.90;65.50